Terminal Aerodrome Forecast
Issued by NWS

Current Version | Previous Version | Text Only | Print | Product List | Glossary On
Versions: 1 2 3 4 5 6 7 8 9 10 11 12 13 14 15 16 17 18
000
FTUS42 KRAH 220522
TAFRWI
TAF
KRWI 220522Z 2206/2306 24005KT P6SM BKN200
     FM222000 25012G20KT P6SM BKN060 OVC100 PROB30 2221/2301 6SM -RA
     FM230400 30010G15KT P6SM SCT035=

USA.gov is the U.S. government's official web portal to all federal, state and local government web resources and services.